Time;durP1;ratioP1;P1;durP2;ratioP2;P2;SDS_P1;SDS_P2;PMS_P1;PMS_P2;Temp;Humidity;BMP_temperature;BMP_pressure;BME280_temperature;BME280_humidity;BME280_pressure;Samples;Min_cycle;Max_cycle;Signal;HPM_P1;HPM_P2
2021/08/05 00:02:18;;;;;;;5.07;3.30;;;;;;;10.23;91.49;90479.63;5033456;28;20029;-85
2021/08/05 00:04:59;;;;;;;9.90;3.13;;;;;;;10.17;91.63;90475.75;5000034;28;20087;-83
2021/08/05 00:07:37;;;;;;;4.75;2.67;;;;;;;10.22;91.36;90465.13;5000409;28;20022;-85
2021/08/05 00:10:16;;;;;;;5.60;2.90;;;;;;;10.17;91.47;90473.16;5000516;28;20021;-84
2021/08/05 00:12:50;;;;;;;4.63;2.50;;;;;;;10.14;91.68;90468.63;5000676;28;20033;-84
2021/08/05 00:15:29;;;;;;;3.78;2.55;;;;;;;10.10;91.66;90465.19;5001063;28;20076;-84
2021/08/05 00:18:07;;;;;;;3.90;2.72;;;;;;;10.07;91.56;90469.22;5000946;28;20313;-84
2021/08/05 00:20:46;;;;;;;4.20;2.50;;;;;;;9.98;91.18;90466.75;5000687;28;20013;-84
2021/08/05 00:23:25;;;;;;;4.80;2.33;;;;;;;9.97;90.97;90457.44;4984265;28;20113;-84
2021/08/05 00:26:05;;;;;;;19.77;2.80;;;;;;;9.94;91.25;90458.13;5008649;28;20029;-85
2021/08/05 00:28:41;;;;;;;2.78;2.00;;;;;;;9.90;91.47;90467.69;5000428;28;20406;-85
2021/08/05 00:31:17;;;;;;;15.95;2.72;;;;;;;9.99;91.39;90468.28;4997122;28;20042;-83
2021/08/05 00:33:55;;;;;;;4.22;2.42;;;;;;;9.96;91.77;90463.72;4980263;28;20026;-84
2021/08/05 00:36:36;;;;;;;6.10;2.53;;;;;;;9.98;92.03;90466.75;4980441;28;20036;-85
2021/08/05 00:39:17;;;;;;;11.20;2.72;;;;;;;9.98;91.75;90477.19;5013268;28;20032;-85
2021/08/05 00:41:45;;;;;;;5.82;2.50;;;;;;;9.96;91.62;90471.53;5013201;28;20433;-84
2021/08/05 00:44:25;;;;;;;23.63;2.95;;;;;;;9.93;91.77;90467.03;4995963;28;20105;-84
2021/08/05 00:47:02;;;;;;;83.80;3.40;;;;;;;9.96;91.69;90461.13;4996023;28;20026;-85
2021/08/05 00:49:41;;;;;;;3.05;2.22;;;;;;;9.92;92.00;90462.88;5000654;28;20034;-84
2021/08/05 00:52:20;;;;;;;5.65;2.20;;;;;;;9.88;91.55;90464.66;5016254;28;20115;-84
2021/08/05 00:54:54;;;;;;;13.75;2.25;;;;;;;9.84;92.07;90461.22;4983997;28;20409;-83
2021/08/05 00:57:34;;;;;;;13.48;2.72;;;;;;;9.85;92.18;90457.50;4998784;28;20021;-84
2021/08/05 01:00:16;;;;;;;37.05;2.92;;;;;;;9.77;92.27;90445.41;5015801;28;20444;-84
2021/08/05 01:02:59;;;;;;;60.35;3.10;;;;;;;9.74;92.24;90446.06;5015491;28;20029;-84
2021/08/05 01:05:38;;;;;;;21.20;2.28;;;;;;;9.69;92.77;90447.09;5000008;28;20059;-84
2021/08/05 01:08:24;;;;;;;9.25;2.22;;;;;;;9.75;93.16;90447.59;5000349;28;20029;-85
2021/08/05 01:11:06;;;;;;;3.80;1.90;;;;;;;9.74;91.98;90448.69;4982863;28;20026;-85
2021/08/05 01:14:07;;;;;;;3.50;1.80;;;;;;;9.69;91.78;90449.69;4998400;28;20029;-85
2021/08/05 01:16:43;;;;;;;13.15;1.88;;;;;;;9.70;91.76;90458.25;4998320;28;20499;-84
2021/08/05 01:19:51;;;;;;;7.57;2.47;;;;;;;9.66;92.03;90452.19;4982191;28;20033;-82
2021/08/05 01:22:38;;;;;;;24.63;2.20;;;;;;;9.60;92.04;90449.06;5014039;28;20037;-84
2021/08/05 01:25:29;;;;;;;6.82;2.40;;;;;;;9.62;92.42;90451.34;5030038;28;20018;-85
2021/08/05 01:28:07;;;;;;;18.42;2.45;;;;;;;9.52;92.57;90450.72;4978303;28;20121;-84
2021/08/05 01:30:51;;;;;;;8.00;2.30;;;;;;;9.56;92.42;90448.97;4994859;28;20030;-84
2021/08/05 01:33:31;;;;;;;8.37;2.20;;;;;;;9.56;92.31;90446.38;4994948;28;20068;-84
2021/08/05 01:36:03;;;;;;;12.48;2.00;;;;;;;9.64;91.82;90441.34;4978428;28;20032;-84
2021/08/05 01:38:53;;;;;;;10.30;2.00;;;;;;;9.68;91.75;90450.00;4994756;28;20482;-83
2021/08/05 01:41:27;;;;;;;3.33;2.13;;;;;;;9.55;91.62;90441.53;4993682;28;20029;-85
2021/08/05 01:44:05;;;;;;;2.83;1.90;;;;;;;9.53;92.01;90447.03;4994604;28;20029;-84
2021/08/05 01:46:39;;;;;;;3.65;2.00;;;;;;;9.43;92.02;90426.72;5005982;28;20033;-87
2021/08/05 01:49:17;;;;;;;8.05;2.30;;;;;;;9.54;91.76;90432.19;4989372;28;20057;-85
2021/08/05 01:51:57;;;;;;;11.48;2.20;;;;;;;9.49;91.93;90435.78;4997988;28;20050;-86
2021/08/05 01:54:35;;;;;;;8.20;1.95;;;;;;;9.49;92.05;90427.97;4982049;28;20026;-86
2021/08/05 01:57:14;;;;;;;5.22;2.13;;;;;;;9.50;92.15;90418.34;4998384;28;20033;-86
2021/08/05 01:59:50;;;;;;;17.85;2.20;;;;;;;9.47;92.28;90424.97;4998416;28;20049;-86
2021/08/05 02:02:29;;;;;;;9.15;2.05;;;;;;;9.47;92.14;90422.38;4999328;28;20482;-85
2021/08/05 02:05:36;;;;;;;4.13;2.10;;;;;;;9.48;92.21;90418.69;5011026;28;20033;-85
2021/08/05 02:08:15;;;;;;;2.95;1.90;;;;;;;9.50;92.09;90416.47;5004012;28;20081;-85
2021/08/05 02:10:59;;;;;;;2.10;1.70;;;;;;;9.47;91.84;90409.38;4996770;28;20029;-85
2021/08/05 02:13:35;;;;;;;2.22;1.60;;;;;;;9.42;91.82;90409.59;5013735;28;20050;-86
2021/08/05 02:16:17;;;;;;;2.95;1.50;;;;;;;9.39;91.67;90405.06;4980821;28;20501;-86
2021/08/05 02:18:51;;;;;;;5.70;1.50;;;;;;;9.34;91.85;90397.50;4981346;28;20033;-85
2021/08/05 02:21:28;;;;;;;4.50;1.50;;;;;;;9.43;90.94;90400.69;4980985;28;20056;-86
2021/08/05 02:24:10;;;;;;;3.58;1.80;;;;;;;9.33;91.74;90390.81;4997513;28;20050;-86
2021/08/05 02:26:51;;;;;;;3.42;1.50;;;;;;;9.43;90.56;90379.88;4992340;28;20029;-84
2021/08/05 02:29:28;;;;;;;1.70;1.20;;;;;;;9.33;90.33;90390.81;4997981;28;20402;-86
2021/08/05 02:32:04;;;;;;;1.77;1.30;;;;;;;9.31;90.47;90382.56;4980375;28;20026;-86
2021/08/05 02:34:38;;;;;;;4.35;1.60;;;;;;;9.30;90.29;90384.41;4984054;28;20026;-86
2021/08/05 02:37:19;;;;;;;1.73;1.30;;;;;;;9.17;90.56;90382.19;5002897;28;20025;-87
2021/08/05 02:39:55;;;;;;;1.85;1.33;;;;;;;9.14;90.93;90380.25;5017981;28;20494;-86
2021/08/05 02:42:31;;;;;;;1.90;1.23;;;;;;;9.23;90.54;90386.06;5017953;28;20111;-86
2021/08/05 02:45:08;;;;;;;2.20;1.50;;;;;;;9.10;90.47;90383.50;5002396;28;20026;-86
2021/08/05 02:47:56;;;;;;;8.55;1.33;;;;;;;9.00;90.44;90378.78;5002024;28;20033;-87
2021/08/05 02:50:31;;;;;;;6.28;1.40;;;;;;;8.94;90.47;90387.91;5002655;28;20053;-87
2021/08/05 02:53:11;;;;;;;12.38;1.50;;;;;;;8.87;90.61;90385.13;5000829;28;20076;-88
2021/08/05 02:55:49;;;;;;;2.45;1.50;;;;;;;8.90;90.48;90384.44;4985309;28;20486;-87
2021/08/05 02:58:25;;;;;;;2.00;1.40;;;;;;;8.85;90.68;90387.28;5003566;28;20034;-86
2021/08/05 03:01:07;;;;;;;2.78;1.48;;;;;;;8.78;90.81;90381.91;5005256;28;20037;-86
2021/08/05 03:03:46;;;;;;;2.40;1.40;;;;;;;8.78;90.85;90389.69;5001030;28;20033;-86
2021/08/05 03:06:13;;;;;;;2.05;1.50;;;;;;;8.81;90.70;90386.44;5014479;28;20029;-85
2021/08/05 03:08:53;;;;;;;1.55;1.00;;;;;;;8.80;90.34;90382.34;4982061;28;20025;-86
2021/08/05 03:11:34;;;;;;;7.63;1.40;;;;;;;8.63;90.57;90380.00;4998229;28;20037;-85
2021/08/05 03:14:12;;;;;;;2.20;1.50;;;;;;;8.57;90.94;90389.84;5014074;28;20486;-86
2021/08/05 03:16:49;;;;;;;2.10;1.52;;;;;;;8.53;90.81;90387.13;5014394;28;20049;-85
2021/08/05 03:19:29;;;;;;;3.80;1.40;;;;;;;8.55;90.80;90395.38;4998662;28;20026;-86
2021/08/05 03:22:07;;;;;;;3.40;1.25;;;;;;;8.52;90.58;90406.41;5014622;28;20025;-86
2021/08/05 03:24:41;;;;;;;1.58;1.00;;;;;;;8.46;90.59;90389.53;4999047;28;20041;-84
2021/08/05 03:27:22;;;;;;;1.83;1.25;;;;;;;8.51;90.68;90397.09;5029331;28;20032;-85
2021/08/05 03:29:57;;;;;;;1.08;0.80;;;;;;;8.47;90.66;90387.69;5018310;28;20038;-86
2021/08/05 03:32:37;;;;;;;1.20;0.80;;;;;;;8.49;90.29;90399.28;4998984;28;20089;-86
2021/08/05 03:35:16;;;;;;;1.20;0.70;;;;;;;8.56;90.21;90396.88;5030439;28;20026;-86
2021/08/05 03:37:52;;;;;;;1.88;1.00;;;;;;;8.48;90.39;90391.78;5015006;28;20045;-86
2021/08/05 03:40:31;;;;;;;5.13;0.98;;;;;;;8.39;90.66;90381.53;5014813;28;20375;-84
2021/08/05 03:43:08;;;;;;;5.85;2.08;;;;;;;8.43;90.62;90389.44;5015198;28;20026;-85
2021/08/05 03:45:52;;;;;;;6.82;1.10;;;;;;;8.34;90.96;90397.31;5030484;28;20117;-86
2021/08/05 03:48:25;;;;;;;9.30;1.70;;;;;;;8.38;91.47;90387.81;4999263;28;20029;-86
2021/08/05 03:51:05;;;;;;;3.85;1.20;;;;;;;8.35;91.72;90393.63;5013851;28;20283;-86
2021/08/05 03:53:38;;;;;;;2.80;1.27;;;;;;;8.33;91.54;90391.34;4983968;28;20025;-86
2021/08/05 03:56:21;;;;;;;1.95;1.23;;;;;;;8.40;91.63;90393.44;4999427;28;20026;-86
2021/08/05 03:59:00;;;;;;;5.35;1.55;;;;;;;8.39;91.74;90384.13;4984323;28;20022;-86
2021/08/05 04:01:37;;;;;;;3.90;1.40;;;;;;;8.35;91.27;90385.84;5000213;28;20601;-86
2021/08/05 04:04:18;;;;;;;5.05;1.30;;;;;;;8.38;91.10;90385.22;5017103;23;20312;-86
2021/08/05 04:06:58;;;;;;;4.03;1.33;;;;;;;8.34;91.06;90379.16;5016701;28;20033;-86
2021/08/05 04:09:37;;;;;;;1.85;1.30;;;;;;;8.34;91.25;90387.69;5015780;28;20045;-85
2021/08/05 04:12:19;;;;;;;2.20;1.50;;;;;;;8.36;90.93;90385.50;5016390;28;20029;-85
2021/08/05 04:14:58;;;;;;;8.68;2.00;;;;;;;8.35;91.59;90388.44;5028078;28;20022;-85
2021/08/05 04:17:38;;;;;;;2.13;1.58;;;;;;;8.38;91.89;90385.22;4996630;28;20479;-86
2021/08/05 04:20:18;;;;;;;2.42;1.60;;;;;;;8.48;91.28;90400.34;5011772;28;20025;-86
2021/08/05 04:22:52;;;;;;;2.17;1.42;;;;;;;8.48;91.21;90392.56;4996436;28;20026;-86
2021/08/05 04:25:30;;;;;;;5.28;1.77;;;;;;;8.54;91.37;90393.09;4995399;28;20026;-85
2021/08/05 04:28:06;;;;;;;2.10;1.50;;;;;;;8.51;91.43;90396.34;4995477;28;20042;-86
2021/08/05 04:30:46;;;;;;;1.55;1.20;;;;;;;8.60;91.41;90397.72;4995113;28;20029;-86
2021/08/05 04:33:27;;;;;;;5.38;1.20;;;;;;;8.58;90.94;90393.94;4980272;28;20029;-86
2021/08/05 04:36:07;;;;;;;1.90;1.10;;;;;;;8.55;90.59;90390.19;4996222;28;20021;-85
2021/08/05 04:38:51;;;;;;;1.95;1.40;;;;;;;8.47;90.93;90388.44;4996223;28;20037;-89
2021/08/05 04:41:27;;;;;;;1.48;1.10;;;;;;;8.60;90.41;90396.97;5011782;28;20104;-88
2021/08/05 04:44:01;;;;;;;1.55;1.13;;;;;;;8.50;90.81;90385.19;4996240;28;20025;-88
2021/08/05 04:46:38;;;;;;;3.72;1.15;;;;;;;8.60;90.98;90397.72;4995817;28;20402;-88
2021/08/05 04:49:24;;;;;;;2.47;1.25;;;;;;;8.63;91.09;90393.72;5011388;28;20033;-88
2021/08/05 04:52:06;;;;;;;2.40;1.10;;;;;;;8.70;91.37;90395.78;5012230;28;20030;-88
2021/08/05 04:54:46;;;;;;;1.73;1.02;;;;;;;8.76;91.24;90390.03;4996046;28;20021;-89
2021/08/05 04:57:25;;;;;;;1.60;1.23;;;;;;;8.79;91.04;90388.59;4995550;28;20085;-88
2021/08/05 05:00:04;;;;;;;2.15;1.27;;;;;;;8.88;91.33;90391.81;5011928;28;20049;-89
2021/08/05 05:02:45;;;;;;;1.42;1.20;;;;;;;8.93;91.30;90393.44;4979507;28;20022;-89
2021/08/05 05:05:26;;;;;;;3.53;1.30;;;;;;;8.98;91.46;90396.56;4995489;28;20118;-88
2021/08/05 05:08:18;;;;;;;3.63;1.08;;;;;;;9.08;91.84;90397.91;5012213;28;20030;-88
2021/08/05 05:10:53;;;;;;;2.13;1.25;;;;;;;9.11;92.23;90394.66;5010495;28;20026;-88
2021/08/05 05:13:31;;;;;;;2.72;1.40;;;;;;;9.09;91.70;90384.59;4994841;28;20030;-89
2021/08/05 05:16:08;;;;;;;1.67;0.93;;;;;;;9.14;91.80;90391.41;4995188;28;20490;-88
2021/08/05 05:18:49;;;;;;;3.42;1.35;;;;;;;9.17;91.90;90388.16;4995115;28;20345;-88
2021/08/05 05:21:18;;;;;;;1.70;1.10;;;;;;;9.24;91.90;90393.53;4994461;28;20017;-89
2021/08/05 05:24:01;;;;;;;2.17;1.27;;;;;;;9.28;91.37;90381.38;5006717;28;20023;-88
2021/08/05 05:26:41;;;;;;;2.42;1.10;;;;;;;9.32;92.02;90384.81;5005565;28;20036;-88
2021/08/05 05:29:18;;;;;;;1.77;1.00;;;;;;;9.45;92.58;90382.19;5010630;28;20032;-88
2021/08/05 05:31:58;;;;;;;1.48;1.00;;;;;;;9.58;92.14;90381.78;5011060;28;20658;-88
2021/08/05 05:34:29;;;;;;;1.27;0.95;;;;;;;9.58;91.82;90379.19;4994848;28;20033;-88
2021/08/05 05:37:05;;;;;;;1.05;0.80;;;;;;;9.65;92.21;90381.19;4994806;28;20486;-89
2021/08/05 05:39:33;;;;;;;2.22;1.05;;;;;;;9.70;92.25;90388.00;4995004;28;20087;-88
2021/08/05 05:42:11;;;;;;;4.90;1.48;;;;;;;9.67;91.98;90384.22;5010178;28;20318;-88
2021/08/05 05:44:52;;;;;;;1.50;1.02;;;;;;;9.67;92.17;90384.22;4995020;28;20017;-90
2021/08/05 05:47:28;;;;;;;1.85;1.15;;;;;;;9.76;91.79;90377.00;4995426;28;20029;-89
2021/08/05 05:50:04;;;;;;;1.83;1.08;;;;;;;9.79;91.59;90376.34;4994304;28;20030;-88
2021/08/05 05:52:42;;;;;;;2.45;1.27;;;;;;;9.84;92.02;90387.59;4994314;28;20026;-88
2021/08/05 05:55:17;;;;;;;1.88;1.25;;;;;;;9.91;91.89;90383.31;4995287;28;20190;-88
2021/08/05 05:57:52;;;;;;;2.88;1.17;;;;;;;9.97;91.93;90389.78;4995471;28;20033;-88
2021/08/05 06:00:29;;;;;;;3.72;1.20;;;;;;;10.05;91.84;90383.63;4994288;28;20402;-88
2021/08/05 06:03:05;;;;;;;1.33;1.00;;;;;;;10.18;91.69;90384.31;5010881;28;20033;-89
2021/08/05 06:05:46;;;;;;;1.73;0.98;;;;;;;10.16;91.86;90388.34;4994831;28;20033;-89
2021/08/05 06:08:26;;;;;;;1.30;0.93;;;;;;;10.19;91.93;90383.22;4997739;28;20482;-88
2021/08/05 06:10:58;;;;;;;2.45;1.13;;;;;;;10.26;92.17;90382.66;4982447;28;20033;-88
2021/08/05 06:13:42;;;;;;;1.77;0.93;;;;;;;10.31;92.02;90384.97;5014564;28;20026;-88
2021/08/05 06:16:17;;;;;;;3.50;1.30;;;;;;;10.38;92.25;90379.94;5015387;28;20022;-89
2021/08/05 06:19:04;;;;;;;1.70;1.10;;;;;;;10.40;91.83;90371.78;4998541;28;20123;-88
2021/08/05 06:21:38;;;;;;;1.88;1.30;;;;;;;10.43;92.13;90379.69;5013784;28;20041;-89
2021/08/05 06:24:18;;;;;;;1.77;1.20;;;;;;;10.50;92.13;90384.28;4999023;28;20025;-89
2021/08/05 06:26:55;;;;;;;2.15;1.50;;;;;;;10.58;91.91;90382.59;5013804;28;20104;-88
2021/08/05 06:29:32;;;;;;;1.83;1.40;;;;;;;10.73;91.38;90384.38;4998035;28;20030;-88
2021/08/05 06:32:06;;;;;;;2.25;1.30;;;;;;;10.86;90.96;90391.00;5013907;28;20624;-89
2021/08/05 06:34:44;;;;;;;4.22;1.13;;;;;;;10.96;91.07;90387.09;4982308;28;20056;-88
2021/08/05 06:37:22;;;;;;;3.53;1.35;;;;;;;11.17;90.50;90395.34;5013913;28;20034;-89
2021/08/05 06:39:59;;;;;;;5.35;1.20;;;;;;;11.39;89.51;90393.88;5013722;28;20033;-88
2021/08/05 06:42:36;;;;;;;5.43;1.40;;;;;;;11.49;89.87;90393.31;4997361;28;20026;-88
2021/08/05 06:45:14;;;;;;;2.17;1.48;;;;;;;11.56;89.76;90386.75;5014949;28;20026;-89
2021/08/05 06:47:53;;;;;;;3.03;1.70;;;;;;;11.77;90.52;90379.28;4998293;28;20025;-89
2021/08/05 06:50:33;;;;;;;11.80;8.98;;;;;;;11.90;89.70;90379.88;4981389;28;20087;-89
2021/08/05 06:53:06;;;;;;;7.88;3.08;;;;;;;11.95;89.37;90380.34;5013315;28;20058;-88
2021/08/05 06:55:46;;;;;;;2.05;1.40;;;;;;;12.06;89.63;90377.16;5013940;28;20050;-89
2021/08/05 06:58:23;;;;;;;3.88;1.80;;;;;;;12.25;88.38;90379.69;4997183;28;20064;-89
2021/08/05 07:00:59;;;;;;;4.50;1.50;;;;;;;12.40;87.44;90376.19;5013216;28;20026;-88
2021/08/05 07:03:37;;;;;;;2.47;1.48;;;;;;;12.65;86.57;90373.94;5014012;28;20058;-89
2021/08/05 07:06:19;;;;;;;2.33;1.50;;;;;;;12.86;87.49;90375.28;5014046;28;20030;-88
2021/08/05 07:08:59;;;;;;;3.10;1.88;;;;;;;12.97;86.46;90383.28;5013300;28;20029;-89
2021/08/05 07:11:36;;;;;;;3.45;1.42;;;;;;;12.85;87.67;90377.16;4981358;28;20053;-89
2021/08/05 07:14:16;;;;;;;2.10;1.20;;;;;;;12.88;86.54;90378.31;4997555;28;20478;-88
2021/08/05 07:16:53;;;;;;;2.20;1.30;;;;;;;12.87;87.18;90369.72;4997473;28;20033;-89
2021/08/05 07:19:32;;;;;;;5.57;1.42;;;;;;;12.86;86.00;90373.47;5028376;28;20030;-86
2021/08/05 07:22:07;;;;;;;1.88;1.45;;;;;;;13.13;86.75;90368.91;5013163;28;20478;-86
2021/08/05 07:24:46;;;;;;;3.15;1.30;;;;;;;13.17;85.46;90368.94;4997710;28;20029;-86
2021/08/05 07:27:25;;;;;;;2.20;1.33;;;;;;;13.13;86.31;90368.16;5013568;28;20025;-87
2021/08/05 07:30:05;;;;;;;2.50;1.20;;;;;;;13.14;86.51;90369.66;4996129;28;20030;-85
2021/08/05 07:32:46;;;;;;;2.58;1.45;;;;;;;13.32;85.76;90368.06;5012811;28;20033;-86
2021/08/05 07:35:22;;;;;;;1.20;1.00;;;;;;;13.47;82.30;90370.81;4996410;28;20022;-86
2021/08/05 07:38:03;;;;;;;5.03;1.88;;;;;;;13.37;79.07;90366.97;4996471;28;20244;-86
2021/08/05 07:40:41;;;;;;;2.33;1.08;;;;;;;13.39;83.35;90364.72;5027672;28;20037;-85
2021/08/05 07:43:19;;;;;;;1.75;1.10;;;;;;;13.38;81.32;90366.59;5013115;28;20026;-86
2021/08/05 07:45:54;;;;;;;1.83;1.00;;;;;;;13.38;83.23;90369.22;5012685;28;20022;-86
2021/08/05 07:48:35;;;;;;;1.92;1.25;;;;;;;13.60;85.14;90367.59;4996576;28;20091;-85
2021/08/05 07:51:18;;;;;;;1.77;1.10;;;;;;;13.83;82.96;90366.69;5012000;28;20100;-85
2021/08/05 07:53:59;;;;;;;1.20;0.70;;;;;;;14.08;81.69;90361.66;5012425;28;20501;-87
2021/08/05 07:56:37;;;;;;;2.67;0.98;;;;;;;14.32;79.68;90366.34;5012507;28;20116;-85
2021/08/05 07:59:15;;;;;;;1.67;1.10;;;;;;;14.50;81.21;90371.00;5012468;28;20113;-87
2021/08/05 08:01:52;;;;;;;1.80;1.20;;;;;;;14.43;80.34;90355.94;4996304;28;20018;-86
2021/08/05 08:04:24;;;;;;;2.00;1.13;;;;;;;14.31;78.49;90364.06;5013701;28;20037;-86
2021/08/05 08:06:59;;;;;;;2.03;1.05;;;;;;;14.12;77.65;90370.28;5028406;28;20037;-86
2021/08/05 08:09:37;;;;;;;2.22;1.10;;;;;;;14.18;78.71;90361.00;5012531;28;20037;-86
2021/08/05 08:12:16;;;;;;;1.92;0.80;;;;;;;14.43;74.62;90360.44;5012346;28;20057;-86
2021/08/05 08:14:56;;;;;;;1.17;0.70;;;;;;;14.51;74.74;90373.22;5012451;28;20485;-86
2021/08/05 08:17:36;;;;;;;1.08;0.60;;;;;;;14.52;74.52;90360.88;5012459;28;20021;-86
2021/08/05 08:20:16;;;;;;;1.73;0.77;;;;;;;14.49;75.15;90369.47;5011917;28;20022;-86
2021/08/05 08:22:57;;;;;;;0.95;0.68;;;;;;;14.50;77.18;90371.75;5012199;28;20013;-85
2021/08/05 08:25:32;;;;;;;1.27;0.75;;;;;;;14.86;75.84;90371.97;5012923;28;20026;-87
2021/08/05 08:28:12;;;;;;;1.30;0.73;;;;;;;14.83;78.04;90362.19;5029149;28;20022;-86
2021/08/05 08:30:45;;;;;;;1.42;0.85;;;;;;;14.94;76.85;90365.63;4994855;28;20033;-86
2021/08/05 08:33:25;;;;;;;1.98;0.90;;;;;;;15.02;76.58;90369.06;5028447;28;20021;-86
2021/08/05 08:35:59;;;;;;;3.10;0.88;;;;;;;14.94;75.52;90362.25;4996152;28;20026;-86
2021/08/05 08:38:28;;;;;;;;;;;;;;;15.01;76.93;90373.53;5012576;28;20033;-86
2021/08/05 08:41:08;;;;;;;1.20;0.80;;;;;;;15.05;75.93;90361.19;5010998;28;20004;-86
2021/08/05 08:43:45;;;;;;;1.60;1.08;;;;;;;15.16;77.59;90366.50;5012819;28;20485;-86
2021/08/05 08:46:25;;;;;;;1.15;1.00;;;;;;;15.35;74.64;90368.06;5012703;28;20025;-86
2021/08/05 08:49:01;;;;;;;1.75;1.33;;;;;;;15.37;73.06;90368.44;4996291;28;20481;-88
2021/08/05 08:51:35;;;;;;;2.58;1.40;;;;;;;15.53;73.39;90373.38;5011235;28;20544;-88
2021/08/05 08:54:15;;;;;;;1.33;0.77;;;;;;;15.60;72.12;90370.00;5011030;28;20608;-88
2021/08/05 08:56:54;;;;;;;1.50;1.00;;;;;;;15.40;73.12;90367.69;4995788;28;20056;-88
2021/08/05 08:59:33;;;;;;;1.50;1.20;;;;;;;15.25;74.03;90369.50;5011397;28;20105;-85
2021/08/05 09:02:09;;;;;;;1.73;1.33;;;;;;;15.38;72.87;90371.81;5026872;28;20025;-86
2021/08/05 09:04:48;;;;;;;4.50;1.27;;;;;;;15.10;74.46;90370.59;5011794;28;20029;-85
2021/08/05 09:07:27;;;;;;;2.33;1.30;;;;;;;15.17;73.75;90362.00;4979489;28;20067;-85
2021/08/05 09:10:01;;;;;;;2.22;1.30;;;;;;;15.28;72.12;90374.03;5011141;28;20428;-85
2021/08/05 09:12:42;;;;;;;1.85;1.40;;;;;;;15.36;72.62;90368.81;5010927;28;20442;-86
2021/08/05 09:15:16;;;;;;;2.47;1.30;;;;;;;15.27;74.03;90358.66;4980009;28;20113;-86
2021/08/05 09:17:48;;;;;;;2.28;1.20;;;;;;;15.40;73.53;90370.31;4995061;28;20026;-85
2021/08/05 09:20:28;;;;;;;2.22;1.20;;;;;;;15.33;73.49;90372.16;4994239;28;20108;-85
2021/08/05 09:23:08;;;;;;;1.55;1.00;;;;;;;15.49;70.66;90375.22;5011794;28;20100;-86
2021/08/05 09:25:36;;;;;;;2.03;1.33;;;;;;;15.43;73.48;90366.94;5011546;28;20018;-86
2021/08/05 09:28:27;;;;;;;1.80;1.10;;;;;;;15.21;72.38;90363.50;5010506;28;20018;-86
2021/08/05 09:31:03;;;;;;;2.10;1.20;;;;;;;15.59;71.81;90355.38;5009948;28;20049;-86
2021/08/05 09:33:41;;;;;;;1.92;1.10;;;;;;;15.74;70.27;90356.94;5010619;28;20026;-86
2021/08/05 09:36:28;;;;;;;2.22;1.13;;;;;;;15.84;70.91;90358.84;5010707;28;20026;-86
2021/08/05 09:39:13;;;;;;;2.60;1.25;;;;;;;15.92;72.07;90360.34;4994815;28;20410;-86
2021/08/05 09:42:18;;;;;;;2.50;1.10;;;;;;;15.94;68.80;90357.38;5009870;28;20054;-85
2021/08/05 09:44:52;;;;;;;;;;;;;;;15.69;68.72;90360.69;5001975;28;20057;-86
2021/08/05 09:47:34;;;;;;;1.63;0.93;;;;;;;15.70;70.74;90356.94;4994739;28;19913;-86
2021/08/05 09:50:11;;;;;;;1.92;1.00;;;;;;;15.76;68.75;90357.34;5009703;28;20025;-86
2021/08/05 09:52:47;;;;;;;2.58;1.13;;;;;;;15.75;70.62;90361.81;5026291;28;20030;-86
2021/08/05 09:55:37;;;;;;;2.03;1.33;;;;;;;16.02;68.96;90340.47;4995501;28;20065;-86
2021/08/05 09:58:14;;;;;;;2.90;1.23;;;;;;;16.31;69.05;90343.09;5010197;28;20121;-86
2021/08/05 10:00:50;;;;;;;1.98;1.17;;;;;;;16.38;70.21;90337.84;4994569;28;20025;-86
2021/08/05 10:03:40;;;;;;;2.75;1.30;;;;;;;16.48;67.98;90348.34;4993999;28;20032;-86
2021/08/05 10:06:18;;;;;;;1.95;1.40;;;;;;;16.55;67.91;90342.34;5105120;23;20053;-85
2021/08/05 10:08:58;;;;;;;2.08;1.35;;;;;;;16.94;68.03;90346.81;5055040;28;20046;-85
2021/08/05 10:11:40;;;;;;;1.90;1.38;;;;;;;16.95;66.39;90343.78;5070688;28;20029;-85
2021/08/05 10:14:27;;;;;;;2.50;1.30;;;;;;;17.06;64.96;90338.47;5070356;28;20028;-86
2021/08/05 10:17:03;;;;;;;1.73;1.25;;;;;;;17.05;65.15;90330.97;5075305;28;20051;-88
2021/08/05 10:19:46;;;;;;;1.75;1.40;;;;;;;16.92;69.01;90339.28;5080247;28;20068;-88
2021/08/05 10:22:25;;;;;;;1.48;1.02;;;;;;;16.98;65.88;90337.00;5060311;28;20029;-86
2021/08/05 10:25:03;;;;;;;2.15;1.30;;;;;;;16.77;65.14;90322.03;5058416;28;20103;-87
2021/08/05 10:27:42;;;;;;;1.77;1.10;;;;;;;16.56;65.32;90322.03;5041817;28;20053;-86
2021/08/05 10:30:21;;;;;;;1.20;0.90;;;;;;;16.72;67.63;90325.78;5058941;28;20033;-86
2021/08/05 10:32:57;;;;;;;2.42;1.23;;;;;;;16.67;67.03;90315.63;5058434;28;20028;-86
2021/08/05 10:35:33;;;;;;;1.58;1.10;;;;;;;16.56;67.37;90328.06;5057899;28;20052;-86
2021/08/05 10:38:06;;;;;;;1.60;1.20;;;;;;;16.82;64.81;90323.50;5058850;28;20028;-86
2021/08/05 10:40:37;;;;;;;1.60;1.15;;;;;;;17.12;67.42;90318.53;5042638;28;20024;-86
2021/08/05 10:43:21;;;;;;;1.80;1.20;;;;;;;16.84;63.86;90322.00;5059067;28;20025;-87
2021/08/05 10:45:50;;;;;;;1.85;1.10;;;;;;;16.56;64.52;90322.78;5060344;28;20028;-86
2021/08/05 10:48:32;;;;;;;3.17;1.27;;;;;;;16.62;65.35;90310.75;5076113;28;20028;-87
2021/08/05 10:51:08;;;;;;;1.77;1.00;;;;;;;16.75;65.56;90310.38;5044133;28;20040;-86
2021/08/05 10:53:47;;;;;;;1.48;1.20;;;;;;;16.54;63.65;90301.38;5068999;28;20032;-86
2021/08/05 10:56:29;;;;;;;2.55;1.23;;;;;;;16.18;65.17;90304.06;5089449;28;20480;-85
2021/08/05 10:59:16;;;;;;;2.30;1.30;;;;;;;16.87;66.00;90304.72;5042132;28;20400;-86
2021/08/05 11:01:59;;;;;;;1.83;1.10;;;;;;;17.17;65.75;90307.63;5060305;28;20456;-85
2021/08/05 11:04:44;;;;;;;1.67;1.00;;;;;;;17.26;64.41;90306.47;5057943;28;20077;-85
2021/08/05 11:07:33;;;;;;;2.00;1.30;;;;;;;17.49;64.17;90301.47;5074390;28;20020;-85
2021/08/05 11:10:25;;;;;;;1.60;1.23;;;;;;;17.75;63.25;90299.44;5073673;28;20025;-85
2021/08/05 11:13:15;;;;;;;1.67;1.20;;;;;;;17.88;61.47;90288.09;5057833;28;20039;-85
2021/08/05 11:15:53;;;;;;;1.40;1.00;;;;;;;17.46;61.26;90296.22;5061905;28;20028;-85
2021/08/05 11:18:28;;;;;;;1.65;1.17;;;;;;;17.47;60.26;90289.81;5043912;28;20107;-87
2021/08/05 11:21:07;;;;;;;1.90;1.10;;;;;;;17.47;60.46;90284.53;5076234;28;20055;-86
2021/08/05 11:23:47;;;;;;;2.15;1.10;;;;;;;17.60;61.28;90285.59;5076979;28;20099;-86
2021/08/05 11:26:24;;;;;;;3.20;1.20;;;;;;;17.71;63.13;90280.28;5076455;28;20024;-86
2021/08/05 11:29:02;;;;;;;1.60;1.33;;;;;;;17.74;61.32;90288.16;5061021;28;20028;-86
2021/08/05 11:31:38;;;;;;;2.30;1.20;;;;;;;17.64;61.83;90276.53;5077421;28;20537;-87
2021/08/05 11:34:18;;;;;;;2.03;1.10;;;;;;;17.43;62.46;90281.94;5044466;28;20501;-86
2021/08/05 11:36:57;;;;;;;1.77;1.10;;;;;;;17.45;63.93;90284.91;5061151;28;20039;-86
2021/08/05 11:39:35;;;;;;;2.88;1.10;;;;;;;17.40;62.34;90282.69;5063311;28;20083;-87
2021/08/05 11:42:21;;;;;;;5.55;2.05;;;;;;;17.61;61.72;90272.03;5067448;28;20032;-85
2021/08/05 11:45:04;;;;;;;1.92;1.08;;;;;;;17.12;62.01;90273.78;5074330;28;20025;-85
2021/08/05 11:47:48;;;;;;;1.65;1.10;;;;;;;16.58;65.07;90278.47;5074218;28;20025;-85
2021/08/05 11:50:29;;;;;;;1.58;1.08;;;;;;;16.38;66.22;90286.00;5074756;28;20099;-85
2021/08/05 11:53:04;;;;;;;1.85;1.20;;;;;;;16.11;68.36;90283.00;5041407;28;20451;-85
2021/08/05 11:55:47;;;;;;;2.53;1.25;;;;;;;15.98;69.89;90280.03;5057903;28;20193;-85
2021/08/05 11:58:26;;;;;;;2.33;1.35;;;;;;;15.73;71.46;90295.03;5058756;28;20510;-85
2021/08/05 12:01:05;;;;;;;3.67;1.23;;;;;;;15.49;73.05;90288.59;5056880;28;20061;-84
2021/08/05 12:03:42;;;;;;;4.25;1.50;;;;;;;15.22;77.01;90314.38;5073547;28;20484;-86
2021/08/05 12:06:26;;;;;;;3.20;1.27;;;;;;;14.81;77.84;90310.13;5057803;28;20086;-85
2021/08/05 12:09:25;;;;;;;3.13;1.42;;;;;;;14.75;77.77;90316.81;5057806;28;20480;-86
2021/08/05 12:12:05;;;;;;;1.83;1.55;;;;;;;14.64;81.40;90316.00;5057646;28;20494;-84
2021/08/05 12:14:48;;;;;;;2.63;1.20;;;;;;;14.35;78.38;90313.19;5041806;28;20024;-85
2021/08/05 12:17:41;;;;;;;1.90;1.10;;;;;;;14.23;77.41;90316.09;5058773;28;20056;-84
2021/08/05 12:20:21;;;;;;;1.17;0.90;;;;;;;14.15;78.03;90298.84;5059357;28;20162;-85
2021/08/05 12:23:02;;;;;;;2.78;1.50;;;;;;;14.18;77.42;90294.75;5058505;28;20052;-85
2021/08/05 12:28:41;;;;;;;3.35;0.75;;;;;;;14.36;77.24;90298.22;5061082;28;20031;-86
2021/08/05 12:31:20;;;;;;;1.85;0.80;;;;;;;14.47;77.92;90295.66;5058541;28;20020;-87
2021/08/05 12:33:59;;;;;;;2.08;0.80;;;;;;;14.66;75.88;90282.28;5041892;28;20036;-86
2021/08/05 12:36:36;;;;;;;2.05;1.38;;;;;;;14.66;77.11;90290.16;5073893;28;20331;-87